Joplin, MT (59531)

10:20 AM MST on December 21, 2014 (GMT -0700)
17 miles N. of Chester, MT; Mattson Bros Inc. Farms | Change Station
CLOSE
Current Station
Personal Weather Station
Location: Chester, MT
Elevation: 3497 ft
Nearby Weather Stations

Elev 3497 ft 48.74 °N, 110.93 °W | Updated 8 minutes ago

Mostly Cloudy
Mostly Cloudy
41.0 °F
Feels Like 34 °F
N
12.0
Wind Variable Wind from East
Gusts 23.0 mph

Today
High -- | Low -- °F
--% Chance of Precip.
Yesterday
High -- | Low -- °F
Precip. -- in
8:13 AM 4:29 PM
Waning Crescent, 0% visible
Pressure 29.34 in
Visibility 10.0 miles
Clouds Overcast 7500 ft
Windchill 34 °F
Dew Point 33 °F
Humidity 73%
Rainfall 0.00 in
Snow Depth Not available.
UV 0 out of 12
Pollen .10 out of 12
Air Quality Not available.
Flu Activity Not available.
METAR KHVR 211653Z AUTO 25008KT 10SM OVC075 04/01 A2929 RMK AO2 SLP936 T00440011 $

More Conditions Fewer Conditions

Pressure 29.34 in
Visibility 10.0 miles
Clouds Overcast 7500 ft
Windchill 34 °F
Dew Point 33 °F
Humidity 73%
Rainfall 0.00 in
Snow Depth Not available.
UV 0 out of 12
Pollen .10 out of 12
Air Quality Not available.
Flu Activity Not available.
METAR KHVR 211653Z AUTO 25008KT 10SM OVC075 04/01 A2929 RMK AO2 SLP936 T00440011 $

More Conditions Fewer Conditions

10-Day Weather Forecast

Almanac

Astronomy

Dec. 21, 2014 Rise Set
Actual Time
Civil Twilight
Nautical Twilight
Astronomical Twilight
Moon
Length of Visible Light
Length of Day
Tomorrow will be .
, % of the Moon is Illuminated

Today's Extremes

State Highs State Lows

Community

WunderPhotos

Upload Photos

1,779,436 photos uploaded!

WunderBlogs® & News

Nearby

Air Quality

  Air Quality AQ Index Pollutant
Not available.

Snow Depth

Station Depth Elevation

Earthquake Activity

City Distance Mag. Time & Date
Minimum magnitude displayed is 2.5.

Coastal Water Temperatures

Place Temperature

Nearby Weather Stations